Terminal Aerodrome Forecast
Issued by NWS Blacksburg, VA

Home | Current Version | Previous Version | Text Only | Print | Product List | Glossary On
Versions: 1 2 3 4 5 6 7 8 9 10 11 12 13 14 15
000
FTUS41 KRNK 241144
TAFDAN
TAF
KDAN 241144Z 2412/2512 24007KT P6SM SCT045 BKN250
     FM241700 25012G22KT P6SM VCTS BKN050CB BKN250
     FM242200 27007KT P6SM SCT060 BKN250
     FM250400 30004KT P6SM SCT250=

USA.gov is the U.S. government's official web portal to all federal, state and local government web resources and services.